LFRN/RNS METAR and TAF weather

Enter ICAO airport designator
Station Type Date Time Source
LFRN METAR 2019/12/07 15:00 UTC NOAA

LFRN 071500Z AUTO 21003KT 9999 OVC018 11/09 Q1018 NOSIG


Station Type Date Time Source
LFRN Decoded METAR 2019/12/07 15:00 UTC NOAA

Rennes, France (LFRN) 48-04N 001-44W 37M
Dec 07, 2019 - 10:00 AM EST / 2019.12.07 1500 UTC
Wind: from the SSW (210 degrees) at 3 MPH (3 KT):0
Visibility: greater than 7 mile(s):0
Sky conditions: overcast
Temperature: 51 F (11 C)
Dew Point: 48 F (9 C)
Relative Humidity: 87%
Pressure (altimeter): 30.06 in. Hg (1018 hPa)
ob: LFRN 071500Z AUTO 21003KT 9999 OVC018 11/09 Q1018 NOSIG
cycle: 15

Station Type Date Time Source
LFRN TAF 2019/12/07 12:21 UTC NOAA

TAF LFRN 071100Z 0712/0812 23005KT 9999 BKN030
TEMPO 0718/0803 BKN008
BECMG 0800/0802 21015G25KT
TEMPO 0803/0808 3000 RA BKN005
BECMG 0806/0808 27010KT

Example: see airport list